createdAt,value
2023-03-29T00:01:11.253Z,3.70
2023-03-29T00:04:16.776Z,3.83
2023-03-29T00:07:05.787Z,3.80
2023-03-29T00:09:37.228Z,4.27
2023-03-29T00:12:07.461Z,3.90
2023-03-29T00:14:37.451Z,3.83
2023-03-29T00:17:08.492Z,4.20
2023-03-29T00:19:37.762Z,4.40
2023-03-29T00:22:30.570Z,4.00
2023-03-29T00:28:05.640Z,4.23
2023-03-29T00:30:35.533Z,4.20
2023-03-29T00:33:39.539Z,4.60
2023-03-29T00:36:40.709Z,4.10
2023-03-29T00:39:11.353Z,4.67
2023-03-29T00:41:57.487Z,4.00
2023-03-29T00:45:36.603Z,4.00
2023-03-29T00:48:19.461Z,4.30
2023-03-29T00:50:56.184Z,4.23
2023-03-29T00:53:36.100Z,4.60
2023-03-29T00:56:41.859Z,4.43
2023-03-29T00:59:16.125Z,4.13
2023-03-29T01:01:55.230Z,4.47
2023-03-29T01:04:52.942Z,4.80
2023-03-29T01:07:39.544Z,4.73
2023-03-29T01:10:14.686Z,4.63
2023-03-29T01:12:50.092Z,4.90
2023-03-29T01:15:26.515Z,4.60
2023-03-29T01:18:16.744Z,4.60
2023-03-29T01:21:30.617Z,4.50
2023-03-29T01:24:39.474Z,4.60
2023-03-29T01:30:43.887Z,4.83
2023-03-29T01:33:54.244Z,4.90
2023-03-29T01:36:35.368Z,5.10
2023-03-29T01:39:07.624Z,5.07
2023-03-29T01:41:53.708Z,5.17
2023-03-29T01:44:37.254Z,5.27
2023-03-29T01:47:17.568Z,4.80
2023-03-29T01:50:01.303Z,5.30
2023-03-29T01:52:37.444Z,5.23
2023-03-29T01:55:13.774Z,5.67
2023-03-29T01:57:48.085Z,5.33
2023-03-29T02:00:36.491Z,5.53
2023-03-29T02:03:31.401Z,5.23
2023-03-29T02:06:06.008Z,5.20
2023-03-29T02:08:35.943Z,6.23
2023-03-29T02:11:26.751Z,5.37
2023-03-29T02:14:33.987Z,5.87
2023-03-29T02:17:18.575Z,5.60
2023-03-29T02:19:58.646Z,5.43
2023-03-29T02:22:57.564Z,6.53
2023-03-29T02:25:46.020Z,5.90
2023-03-29T02:28:23.735Z,5.63
2023-03-29T02:31:09.031Z,5.93
2023-03-29T02:33:52.576Z,5.73
2023-03-29T02:36:39.234Z,5.90
2023-03-29T02:39:14.186Z,5.90
2023-03-29T02:41:48.886Z,6.23
2023-03-29T02:44:39.044Z,6.63
2023-03-29T02:47:17.652Z,6.23
2023-03-29T02:49:50.030Z,6.40
2023-03-29T02:52:33.759Z,6.70
2023-03-29T02:55:06.699Z,8.10
2023-03-29T02:57:39.829Z,7.77
2023-03-29T03:01:11.992Z,7.03
2023-03-29T03:03:43.563Z,6.93
2023-03-29T03:06:19.018Z,7.67
2023-03-29T03:08:54.389Z,7.97
2023-03-29T03:11:30.198Z,7.33
2023-03-29T03:14:01.581Z,7.53
2023-03-29T03:17:11.836Z,7.73
2023-03-29T03:19:43.666Z,8.10
2023-03-29T03:22:15.096Z,8.07
2023-03-29T03:24:46.470Z,8.90
2023-03-29T03:27:16.689Z,8.80
2023-03-29T03:29:57.723Z,8.20
2023-03-29T03:33:01.671Z,9.07
2023-03-29T03:36:06.186Z,9.13
2023-03-29T03:38:43.217Z,10.00
2023-03-29T03:41:13.777Z,10.37
2023-03-29T03:43:46.436Z,10.37
2023-03-29T03:46:16.875Z,10.87
2023-03-29T03:48:47.373Z,10.63
2023-03-29T03:51:16.598Z,11.13
2023-03-29T03:54:01.401Z,10.93
2023-03-29T03:56:50.076Z,10.83
2023-03-29T03:59:20.551Z,11.43
2023-03-29T04:01:49.679Z,11.80
2023-03-29T04:04:19.997Z,11.27
2023-03-29T04:07:04.579Z,11.93
2023-03-29T04:09:41.370Z,11.90
2023-03-29T04:12:13.396Z,12.73
2023-03-29T04:14:43.010Z,12.40
2023-03-29T04:17:15.864Z,13.10
2023-03-29T04:19:48.141Z,13.07
2023-03-29T04:22:18.382Z,12.23
2023-03-29T04:24:49.142Z,12.93
2023-03-29T04:28:10.604Z,12.27
2023-03-29T04:30:42.453Z,11.70
2023-03-29T04:33:12.234Z,11.63
2023-03-29T04:35:43.894Z,11.77
2023-03-29T04:38:13.192Z,11.97
2023-03-29T04:40:44.240Z,12.33
2023-03-29T04:43:15.760Z,12.23
2023-03-29T04:45:45.005Z,12.90
2023-03-29T04:48:13.860Z,12.10
2023-03-29T04:51:04.082Z,12.03
2023-03-29T04:54:39.860Z,12.23
2023-03-29T04:57:11.651Z,12.30
2023-03-29T04:59:43.367Z,12.27
2023-03-29T05:02:14.303Z,12.53
2023-03-29T05:04:44.818Z,12.30
2023-03-29T05:07:35.749Z,12.07
2023-03-29T05:10:31.743Z,11.87
2023-03-29T05:13:04.992Z,12.13
2023-03-29T05:15:36.379Z,11.60
2023-03-29T05:18:27.493Z,12.20
2023-03-29T05:21:02.489Z,12.97
2023-03-29T05:23:32.359Z,12.57
2023-03-29T05:26:36.904Z,12.47
2023-03-29T05:29:44.527Z,12.40
2023-03-29T05:32:19.048Z,13.23
2023-03-29T05:35:10.794Z,12.93
2023-03-29T05:38:10.217Z,12.73
2023-03-29T05:40:41.648Z,12.30
2023-03-29T05:43:11.360Z,12.17
2023-03-29T05:45:42.529Z,13.77
2023-03-29T05:48:14.035Z,12.90
2023-03-29T05:50:46.255Z,12.67
2023-03-29T05:53:16.375Z,13.30
2023-03-29T05:55:53.843Z,12.97
2023-03-29T05:58:31.288Z,12.83
2023-03-29T06:01:26.386Z,13.33
2023-03-29T06:04:03.929Z,13.27
2023-03-29T06:06:33.059Z,12.73
2023-03-29T06:09:37.185Z,14.23
2023-03-29T06:12:07.754Z,14.07
2023-03-29T06:14:37.691Z,13.80
2023-03-29T06:17:16.814Z,14.13
2023-03-29T06:19:47.856Z,13.67
2023-03-29T06:22:16.959Z,13.47
2023-03-29T06:24:46.467Z,14.40
2023-03-29T06:27:15.969Z,14.37
2023-03-29T06:29:45.579Z,14.67
2023-03-29T06:32:22.239Z,14.50
2023-03-29T06:34:55.973Z,15.37
2023-03-29T06:37:49.877Z,14.20
2023-03-29T06:40:48.532Z,14.53
2023-03-29T06:43:18.173Z,15.53
2023-03-29T06:45:47.522Z,14.40
2023-03-29T06:48:18.152Z,14.37
2023-03-29T06:50:50.058Z,15.07
2023-03-29T06:53:43.684Z,13.77
2023-03-29T06:56:14.904Z,15.17
2023-03-29T06:58:45.472Z,14.17
2023-03-29T07:01:15.751Z,15.03
2023-03-29T07:03:46.800Z,15.27
2023-03-29T07:06:22.220Z,14.33
2023-03-29T07:08:52.917Z,15.50
2023-03-29T07:11:41.813Z,15.27
2023-03-29T07:14:12.527Z,14.83
2023-03-29T07:16:42.745Z,15.57
2023-03-29T07:19:36.083Z,15.07
2023-03-29T07:22:08.619Z,16.10
2023-03-29T07:24:38.589Z,15.90
2023-03-29T07:27:42.015Z,14.80
2023-03-29T07:30:17.082Z,14.77
2023-03-29T07:32:48.503Z,15.77
2023-03-29T07:35:37.020Z,15.80
2023-03-29T07:38:10.271Z,15.33
2023-03-29T07:40:41.233Z,13.63
2023-03-29T07:43:42.623Z,14.43
2023-03-29T07:46:13.913Z,14.13
2023-03-29T07:48:45.922Z,13.10
2023-03-29T07:51:24.446Z,13.53
2023-03-29T07:54:00.408Z,13.53
2023-03-29T07:56:32.765Z,13.60
2023-03-29T07:59:19.737Z,12.90
2023-03-29T08:01:52.131Z,13.60
2023-03-29T08:04:22.987Z,12.97
2023-03-29T08:06:59.084Z,12.93
2023-03-29T08:09:35.540Z,11.90
2023-03-29T08:12:09.835Z,11.67
2023-03-29T08:14:38.628Z,11.67
2023-03-29T08:17:07.310Z,11.23
2023-03-29T08:19:35.884Z,11.43
2023-03-29T08:22:05.153Z,10.57
2023-03-29T08:24:35.086Z,11.20
2023-03-29T08:27:04.309Z,10.70
2023-03-29T08:29:32.693Z,11.00
2023-03-29T08:32:02.212Z,10.63
2023-03-29T08:34:31.920Z,11.03
2023-03-29T08:37:00.800Z,10.27
2023-03-29T08:39:30.044Z,9.70
2023-03-29T08:42:16.382Z,10.00
2023-03-29T08:45:00.346Z,9.23
2023-03-29T08:47:40.249Z,9.97
2023-03-29T08:50:12.364Z,10.00
2023-03-29T08:52:44.403Z,9.47
2023-03-29T08:55:26.205Z,10.80
2023-03-29T08:57:57.563Z,9.87
2023-03-29T09:00:35.618Z,9.73
2023-03-29T09:03:11.466Z,10.03
2023-03-29T09:05:46.159Z,9.50
2023-03-29T09:08:17.821Z,9.63
2023-03-29T09:10:50.153Z,9.83
2023-03-29T09:13:42.527Z,8.87
2023-03-29T09:16:22.058Z,8.90
2023-03-29T09:19:11.198Z,8.40
2023-03-29T09:21:46.688Z,9.50
2023-03-29T09:24:34.759Z,9.07
2023-03-29T09:27:11.039Z,8.90
2023-03-29T09:29:56.641Z,9.07
2023-03-29T09:32:33.056Z,9.00
2023-03-29T09:35:18.313Z,9.23
2023-03-29T09:37:49.501Z,9.40
2023-03-29T09:40:23.591Z,9.10
2023-03-29T09:42:56.109Z,9.33
2023-03-29T09:45:26.398Z,9.77
2023-03-29T09:48:01.379Z,9.63
2023-03-29T09:50:35.474Z,9.20
2023-03-29T09:53:05.108Z,10.20
2023-03-29T09:55:36.502Z,9.93
2023-03-29T09:58:15.861Z,10.00
2023-03-29T10:00:46.344Z,9.30
2023-03-29T10:03:21.435Z,9.50
2023-03-29T10:05:53.285Z,8.93
2023-03-29T10:08:28.219Z,10.00
2023-03-29T10:10:59.704Z,9.20
2023-03-29T10:13:32.648Z,10.10
2023-03-29T10:16:09.280Z,10.10
2023-03-29T10:18:43.177Z,9.97
2023-03-29T10:21:16.734Z,10.60
2023-03-29T10:23:45.441Z,10.57
2023-03-29T10:26:26.803Z,9.27
2023-03-29T10:28:57.373Z,9.83
2023-03-29T10:31:30.264Z,10.43
2023-03-29T10:34:03.902Z,9.43
2023-03-29T10:36:32.697Z,10.43
2023-03-29T10:39:05.755Z,9.57
2023-03-29T10:41:36.461Z,10.40
2023-03-29T10:44:05.611Z,10.97
2023-03-29T10:46:43.344Z,10.23
2023-03-29T10:49:22.182Z,10.40
2023-03-29T10:51:51.928Z,10.37
2023-03-29T10:54:25.035Z,11.00
2023-03-29T10:56:57.865Z,9.93
2023-03-29T10:59:30.873Z,11.10
2023-03-29T11:02:51.899Z,10.33
2023-03-29T11:05:29.453Z,11.67
2023-03-29T11:08:32.712Z,12.30
2023-03-29T11:11:13.369Z,10.33
2023-03-29T11:13:52.632Z,10.60
2023-03-29T11:16:32.377Z,10.60
2023-03-29T11:19:26.599Z,11.13
2023-03-29T11:22:03.114Z,10.57
2023-03-29T11:24:50.700Z,11.17
2023-03-29T11:27:30.977Z,10.90
2023-03-29T11:30:10.057Z,10.20
2023-03-29T11:32:53.318Z,10.07
2023-03-29T11:35:46.715Z,10.23
2023-03-29T11:38:25.098Z,10.20
2023-03-29T11:41:02.230Z,9.30
2023-03-29T11:43:37.016Z,9.83
2023-03-29T11:46:13.411Z,10.40
2023-03-29T11:48:49.467Z,10.00
2023-03-29T11:51:26.344Z,9.67
2023-03-29T11:54:04.422Z,10.27
2023-03-29T11:56:39.242Z,9.97
2023-03-29T11:59:17.047Z,9.70
2023-03-29T12:01:50.113Z,9.93
2023-03-29T12:04:28.509Z,9.47
2023-03-29T12:07:10.761Z,9.60
2023-03-29T12:09:42.964Z,8.73
2023-03-29T12:12:18.490Z,10.03
2023-03-29T12:14:58.319Z,9.37
2023-03-29T12:17:33.042Z,9.83
2023-03-29T12:20:16.838Z,9.23
2023-03-29T12:22:49.106Z,10.17
2023-03-29T12:25:23.223Z,9.23
2023-03-29T12:28:08.175Z,8.83
2023-03-29T12:30:52.525Z,8.33
2023-03-29T12:34:04.941Z,8.33
2023-03-29T12:37:02.092Z,8.40
2023-03-29T12:39:33.416Z,8.50
2023-03-29T12:42:18.321Z,8.10
2023-03-29T12:44:51.006Z,8.00
2023-03-29T12:47:25.069Z,7.70
2023-03-29T12:49:57.419Z,7.90
2023-03-29T12:52:31.847Z,7.90
2023-03-29T12:55:05.630Z,8.20
2023-03-29T12:57:43.200Z,7.60
2023-03-29T13:00:22.278Z,7.20
2023-03-29T13:03:03.022Z,7.67
2023-03-29T13:05:36.363Z,6.87
2023-03-29T13:08:29.328Z,7.90
2023-03-29T13:11:00.104Z,7.00
2023-03-29T13:13:32.159Z,7.23
2023-03-29T13:16:15.936Z,7.80
2023-03-29T13:19:28.543Z,7.70
2023-03-29T13:22:12.109Z,6.53
2023-03-29T13:25:06.240Z,7.03
2023-03-29T13:27:46.750Z,7.07
2023-03-29T13:30:35.884Z,6.77
2023-03-29T13:33:23.622Z,6.93
2023-03-29T13:36:01.986Z,6.63
2023-03-29T13:38:33.281Z,6.23
2023-03-29T13:41:05.510Z,7.00
2023-03-29T13:43:53.886Z,6.93
2023-03-29T13:46:27.513Z,6.87
2023-03-29T13:49:03.682Z,7.50
2023-03-29T13:52:04.132Z,7.70
2023-03-29T13:54:37.678Z,7.43
2023-03-29T13:57:15.496Z,6.60
2023-03-29T13:59:57.658Z,7.33
2023-03-29T14:02:42.957Z,6.27
2023-03-29T14:05:16.497Z,6.57
2023-03-29T14:07:51.373Z,7.17
2023-03-29T14:10:25.178Z,7.03
2023-03-29T14:12:57.938Z,6.90
2023-03-29T14:15:42.807Z,6.93
2023-03-29T14:18:13.204Z,7.10
2023-03-29T14:20:46.410Z,8.07
2023-03-29T14:23:21.351Z,7.70
2023-03-29T14:25:53.051Z,7.50
2023-03-29T14:28:26.419Z,7.07
2023-03-29T14:30:57.825Z,6.80
2023-03-29T14:33:28.952Z,7.00
2023-03-29T14:36:00.919Z,7.80
2023-03-29T14:38:31.474Z,7.67
2023-03-29T14:41:02.382Z,7.73
2023-03-29T14:43:32.673Z,7.60
2023-03-29T14:46:06.647Z,7.30
2023-03-29T14:48:36.066Z,7.70
2023-03-29T14:51:06.090Z,7.33
2023-03-29T14:53:37.126Z,7.80
2023-03-29T14:56:07.080Z,7.30
2023-03-29T14:58:37.195Z,8.00
2023-03-29T15:01:15.752Z,8.60
2023-03-29T15:03:46.239Z,8.53
2023-03-29T15:06:15.843Z,8.63
2023-03-29T15:09:01.531Z,8.23
2023-03-29T15:11:34.141Z,8.23
2023-03-29T15:14:06.657Z,8.53
2023-03-29T15:16:40.861Z,8.50
2023-03-29T15:19:17.133Z,8.40
2023-03-29T15:21:47.951Z,8.37
2023-03-29T15:24:25.147Z,8.93
2023-03-29T15:27:03.549Z,9.07
2023-03-29T15:29:42.233Z,8.37
2023-03-29T15:32:22.673Z,9.23
2023-03-29T15:35:06.274Z,8.97
2023-03-29T15:37:35.140Z,9.70
2023-03-29T15:40:10.014Z,9.67
2023-03-29T15:42:39.478Z,9.57
2023-03-29T15:45:14.440Z,9.63
2023-03-29T15:47:44.241Z,9.10
2023-03-29T15:50:12.826Z,9.70
2023-03-29T15:52:41.616Z,9.80
2023-03-29T15:55:11.608Z,10.43
2023-03-29T15:57:49.440Z,10.00
2023-03-29T16:00:19.433Z,10.33
2023-03-29T16:02:51.326Z,9.53
2023-03-29T16:05:20.294Z,10.60
2023-03-29T16:07:49.132Z,11.43
2023-03-29T16:10:17.824Z,12.17
2023-03-29T16:12:46.631Z,13.00
2023-03-29T16:15:21.293Z,12.50
2023-03-29T16:17:51.244Z,13.63
2023-03-29T16:20:21.146Z,13.03
2023-03-29T16:22:51.544Z,12.80
2023-03-29T16:25:23.516Z,13.07
2023-03-29T16:27:54.329Z,12.47
2023-03-29T16:30:24.977Z,12.17
2023-03-29T16:32:55.235Z,11.87
2023-03-29T16:35:30.223Z,11.37
2023-03-29T16:37:59.437Z,11.17
2023-03-29T16:40:28.218Z,10.97
2023-03-29T16:42:57.490Z,9.83
2023-03-29T16:45:26.625Z,11.13
2023-03-29T16:47:57.572Z,11.20
2023-03-29T16:50:26.632Z,10.27
2023-03-29T16:52:55.332Z,10.77
2023-03-29T16:55:25.175Z,11.27
2023-03-29T16:57:55.242Z,10.60
2023-03-29T17:00:25.098Z,10.77
2023-03-29T17:02:56.679Z,10.67
2023-03-29T17:05:25.397Z,12.00
2023-03-29T17:07:56.194Z,13.30
2023-03-29T17:10:26.655Z,13.87
2023-03-29T17:12:56.166Z,14.50
2023-03-29T17:15:24.978Z,14.80
2023-03-29T17:17:55.348Z,15.23
2023-03-29T17:20:26.750Z,13.07
2023-03-29T17:22:56.249Z,13.13
2023-03-29T17:25:25.157Z,13.40
2023-03-29T17:27:54.131Z,14.07
2023-03-29T17:30:23.900Z,13.67
2023-03-29T17:32:52.590Z,14.73
2023-03-29T17:35:24.911Z,15.57
2023-03-29T17:37:55.190Z,15.20
2023-03-29T17:40:24.033Z,13.77
2023-03-29T17:42:52.788Z,13.50
2023-03-29T17:45:22.445Z,14.40
2023-03-29T17:47:51.303Z,14.27
2023-03-29T17:50:23.557Z,13.77
2023-03-29T17:52:52.400Z,14.03
2023-03-29T17:55:21.561Z,14.40
2023-03-29T17:57:50.096Z,13.90
2023-03-29T18:00:20.121Z,14.60
2023-03-29T18:02:48.884Z,14.30
2023-03-29T18:05:18.055Z,14.50
2023-03-29T18:07:47.883Z,14.53
2023-03-29T18:10:16.422Z,15.63
2023-03-29T18:12:46.340Z,16.90
2023-03-29T18:15:14.942Z,16.20
2023-03-29T18:17:43.739Z,16.50
2023-03-29T18:20:14.063Z,16.67
2023-03-29T18:22:43.462Z,17.07
2023-03-29T18:25:14.642Z,16.40
2023-03-29T18:27:43.401Z,18.70
2023-03-29T18:30:13.955Z,17.47
2023-03-29T18:32:42.718Z,18.33
2023-03-29T18:35:12.249Z,19.13
2023-03-29T18:37:42.936Z,18.17
2023-03-29T18:40:13.793Z,19.83
2023-03-29T18:42:42.783Z,19.30
2023-03-29T18:45:12.821Z,20.43
2023-03-29T18:47:47.667Z,20.73
2023-03-29T18:50:16.286Z,21.73
2023-03-29T18:52:46.042Z,21.93
2023-03-29T18:55:16.326Z,22.17
2023-03-29T18:57:44.698Z,23.37
2023-03-29T19:00:14.166Z,22.83
2023-03-29T19:02:43.278Z,21.43
2023-03-29T19:05:12.137Z,21.10
2023-03-29T19:07:40.985Z,20.27
2023-03-29T19:10:10.687Z,20.57
2023-03-29T19:12:40.597Z,21.27
2023-03-29T19:15:11.473Z,21.00
2023-03-29T19:17:40.813Z,20.93
2023-03-29T19:20:12.213Z,20.73
2023-03-29T19:22:41.106Z,21.67
2023-03-29T19:25:11.185Z,22.20
2023-03-29T19:27:41.637Z,22.33
2023-03-29T19:30:12.981Z,21.73
2023-03-29T19:32:41.566Z,22.47
2023-03-29T19:35:12.783Z,21.87
2023-03-29T19:37:41.644Z,22.47
2023-03-29T19:40:11.243Z,22.67
2023-03-29T19:42:41.923Z,22.70
2023-03-29T19:45:12.472Z,23.37
2023-03-29T19:47:44.004Z,22.30
2023-03-29T19:50:13.971Z,23.67
2023-03-29T19:52:43.065Z,23.50
2023-03-29T19:55:12.221Z,23.07
2023-03-29T19:57:42.590Z,23.67
2023-03-29T20:00:14.181Z,23.10
2023-03-29T20:02:43.251Z,22.40
2023-03-29T20:05:12.604Z,22.93
2023-03-29T20:07:41.052Z,22.33
2023-03-29T20:10:11.191Z,22.30
2023-03-29T20:12:41.418Z,23.33
2023-03-29T20:15:11.855Z,21.33
2023-03-29T20:17:40.980Z,24.03
2023-03-29T20:20:14.084Z,24.10
2023-03-29T20:22:45.720Z,23.83
2023-03-29T20:25:14.235Z,24.07
2023-03-29T20:27:44.183Z,22.97
2023-03-29T20:30:14.515Z,23.87
2023-03-29T20:32:43.010Z,23.17
2023-03-29T20:35:12.151Z,23.43
2023-03-29T20:37:40.496Z,24.37
2023-03-29T20:40:13.927Z,23.77
2023-03-29T20:42:47.046Z,24.40
2023-03-29T20:45:19.351Z,24.17
2023-03-29T20:47:50.531Z,24.50
2023-03-29T20:50:21.114Z,24.50
2023-03-29T20:52:49.580Z,23.93
2023-03-29T20:55:22.302Z,24.27
2023-03-29T20:57:55.311Z,24.13
2023-03-29T21:00:25.179Z,24.57
2023-03-29T21:02:55.319Z,24.07
2023-03-29T21:05:24.718Z,25.23
2023-03-29T21:07:55.528Z,25.77
2023-03-29T21:10:26.614Z,24.60
2023-03-29T21:13:00.416Z,26.53
2023-03-29T21:15:30.817Z,27.10
2023-03-29T21:18:00.034Z,27.57
2023-03-29T21:20:29.077Z,27.03
2023-03-29T21:23:01.855Z,27.73
2023-03-29T21:25:30.344Z,26.73
2023-03-29T21:28:00.636Z,27.17
2023-03-29T21:30:31.838Z,27.20
2023-03-29T21:33:01.090Z,27.30
2023-03-29T21:35:33.358Z,28.60
2023-03-29T21:38:02.253Z,28.93
2023-03-29T21:40:30.663Z,29.73
2023-03-29T21:43:00.642Z,29.13
2023-03-29T21:45:29.342Z,28.93
2023-03-29T21:47:58.644Z,29.97
2023-03-29T21:50:28.239Z,30.20
2023-03-29T21:52:57.844Z,31.47
2023-03-29T21:55:27.789Z,30.60
2023-03-29T21:57:56.469Z,30.70
2023-03-29T22:00:27.741Z,30.40
2023-03-29T22:02:57.165Z,32.50
2023-03-29T22:05:27.469Z,32.17
2023-03-29T22:07:58.786Z,31.40
2023-03-29T22:10:27.932Z,31.97
2023-03-29T22:12:57.093Z,32.10
2023-03-29T22:15:29.416Z,33.40
2023-03-29T22:17:59.835Z,32.93
2023-03-29T22:20:29.454Z,34.23
2023-03-29T22:22:58.210Z,33.53
2023-03-29T22:25:28.288Z,33.87
2023-03-29T22:27:57.016Z,33.00
2023-03-29T22:30:27.716Z,32.53
2023-03-29T22:32:56.781Z,34.70
2023-03-29T22:35:25.246Z,35.03
2023-03-29T22:37:53.847Z,33.07
2023-03-29T22:40:22.523Z,32.30
2023-03-29T22:42:51.271Z,33.57
2023-03-29T22:45:21.129Z,33.70
2023-03-29T22:47:51.173Z,33.33
2023-03-29T22:50:19.864Z,32.87
2023-03-29T22:52:48.485Z,33.30
2023-03-29T22:55:17.093Z,32.17
2023-03-29T22:57:45.877Z,31.10
2023-03-29T23:00:15.030Z,31.27
2023-03-29T23:02:43.620Z,32.70
2023-03-29T23:05:13.557Z,30.97
2023-03-29T23:07:41.967Z,31.00
2023-03-29T23:10:11.774Z,30.27
2023-03-29T23:12:43.001Z,29.90
2023-03-29T23:15:13.592Z,30.77
2023-03-29T23:17:42.118Z,27.67
2023-03-29T23:20:14.056Z,27.83
2023-03-29T23:22:43.164Z,28.60
2023-03-29T23:25:12.030Z,27.87
2023-03-29T23:27:40.484Z,27.40
2023-03-29T23:30:11.827Z,27.57
2023-03-29T23:32:41.117Z,27.33
2023-03-29T23:35:10.744Z,27.83
2023-03-29T23:37:40.630Z,26.50
2023-03-29T23:40:11.704Z,27.40
2023-03-29T23:42:41.373Z,27.67
2023-03-29T23:45:13.419Z,26.73
2023-03-29T23:47:42.624Z,26.20
2023-03-29T23:50:16.320Z,27.10
2023-03-29T23:52:47.226Z,25.27
2023-03-29T23:55:17.493Z,27.80
2023-03-29T23:57:46.419Z,25.87
